sensor_id;sensor_type;location;lat;lon;timestamp;temperature;humidity
40702;DHT22;26387;50.114;8.662;2023-03-16T00:01:37;6.30;77.50
40702;DHT22;26387;50.114;8.662;2023-03-16T00:04:03;6.20;78.10
40702;DHT22;26387;50.114;8.662;2023-03-16T00:06:28;6.20;78.70
40702;DHT22;26387;50.114;8.662;2023-03-16T00:08:54;6.10;79.30
40702;DHT22;26387;50.114;8.662;2023-03-16T00:11:26;6.10;79.60
40702;DHT22;26387;50.114;8.662;2023-03-16T00:13:51;6.10;79.90
40702;DHT22;26387;50.114;8.662;2023-03-16T00:16:17;6.10;80.40
40702;DHT22;26387;50.114;8.662;2023-03-16T00:18:42;6.10;80.40
40702;DHT22;26387;50.114;8.662;2023-03-16T00:21:08;6.10;80.90
40702;DHT22;26387;50.114;8.662;2023-03-16T00:23:34;6.00;81.30
40702;DHT22;26387;50.114;8.662;2023-03-16T00:26:01;6.00;81.70
40702;DHT22;26387;50.114;8.662;2023-03-16T00:28:28;5.80;82.20
40702;DHT22;26387;50.114;8.662;2023-03-16T00:31:02;5.70;82.90
40702;DHT22;26387;50.114;8.662;2023-03-16T00:33:27;5.70;83.70
40702;DHT22;26387;50.114;8.662;2023-03-16T00:35:53;5.60;84.30
40702;DHT22;26387;50.114;8.662;2023-03-16T00:38:26;5.60;84.80
40702;DHT22;26387;50.114;8.662;2023-03-16T00:40:52;5.50;85.30
40702;DHT22;26387;50.114;8.662;2023-03-16T00:43:17;5.50;85.70
40702;DHT22;26387;50.114;8.662;2023-03-16T00:45:43;5.50;85.30
40702;DHT22;26387;50.114;8.662;2023-03-16T00:48:09;5.50;85.60
40702;DHT22;26387;50.114;8.662;2023-03-16T00:50:35;5.50;85.40
40702;DHT22;26387;50.114;8.662;2023-03-16T00:53:01;5.60;85.60
40702;DHT22;26387;50.114;8.662;2023-03-16T00:55:26;5.60;85.50
40702;DHT22;26387;50.114;8.662;2023-03-16T00:57:53;5.60;86.00
40702;DHT22;26387;50.114;8.662;2023-03-16T01:00:19;5.50;86.20
40702;DHT22;26387;50.114;8.662;2023-03-16T01:02:45;5.50;86.10
40702;DHT22;26387;50.114;8.662;2023-03-16T01:05:14;5.60;86.20
40702;DHT22;26387;50.114;8.662;2023-03-16T01:07:40;5.60;86.10
40702;DHT22;26387;50.114;8.662;2023-03-16T01:10:06;5.50;86.60
40702;DHT22;26387;50.114;8.662;2023-03-16T01:12:32;5.50;86.70
40702;DHT22;26387;50.114;8.662;2023-03-16T01:14:58;5.50;86.80
40702;DHT22;26387;50.114;8.662;2023-03-16T01:17:23;5.40;86.80
40702;DHT22;26387;50.114;8.662;2023-03-16T01:19:49;5.40;87.00
40702;DHT22;26387;50.114;8.662;2023-03-16T01:22:16;5.40;87.20
40702;DHT22;26387;50.114;8.662;2023-03-16T01:24:42;5.40;87.40
40702;DHT22;26387;50.114;8.662;2023-03-16T01:27:09;5.40;87.60
40702;DHT22;26387;50.114;8.662;2023-03-16T01:29:35;5.40;87.30
40702;DHT22;26387;50.114;8.662;2023-03-16T01:32:01;5.30;87.60
40702;DHT22;26387;50.114;8.662;2023-03-16T01:34:28;5.30;88.10
40702;DHT22;26387;50.114;8.662;2023-03-16T01:36:53;5.20;88.60
40702;DHT22;26387;50.114;8.662;2023-03-16T01:39:19;5.20;89.10
40702;DHT22;26387;50.114;8.662;2023-03-16T01:41:45;5.20;89.20
40702;DHT22;26387;50.114;8.662;2023-03-16T01:44:14;5.30;89.20
40702;DHT22;26387;50.114;8.662;2023-03-16T01:46:40;5.20;89.40
40702;DHT22;26387;50.114;8.662;2023-03-16T01:49:11;5.30;89.70
40702;DHT22;26387;50.114;8.662;2023-03-16T01:51:58;5.30;89.40
40702;DHT22;26387;50.114;8.662;2023-03-16T01:54:25;5.30;89.60
40702;DHT22;26387;50.114;8.662;2023-03-16T01:57:03;5.30;89.70
40702;DHT22;26387;50.114;8.662;2023-03-16T01:59:32;5.20;90.00
40702;DHT22;26387;50.114;8.662;2023-03-16T02:01:59;5.20;90.10
40702;DHT22;26387;50.114;8.662;2023-03-16T02:04:35;5.20;90.30
40702;DHT22;26387;50.114;8.662;2023-03-16T02:07:03;5.20;90.30
40702;DHT22;26387;50.114;8.662;2023-03-16T02:09:29;5.30;90.30
40702;DHT22;26387;50.114;8.662;2023-03-16T02:11:56;5.30;90.30
40702;DHT22;26387;50.114;8.662;2023-03-16T02:14:22;5.30;90.20
40702;DHT22;26387;50.114;8.662;2023-03-16T02:16:49;5.30;90.20
40702;DHT22;26387;50.114;8.662;2023-03-16T02:19:16;5.30;90.10
40702;DHT22;26387;50.114;8.662;2023-03-16T02:21:54;5.40;90.20
40702;DHT22;26387;50.114;8.662;2023-03-16T02:24:21;5.40;90.20
40702;DHT22;26387;50.114;8.662;2023-03-16T02:29:55;5.40;90.30
40702;DHT22;26387;50.114;8.662;2023-03-16T02:32:22;5.30;90.30
40702;DHT22;26387;50.114;8.662;2023-03-16T02:34:48;5.30;90.30
40702;DHT22;26387;50.114;8.662;2023-03-16T02:37:14;5.30;90.30
40702;DHT22;26387;50.114;8.662;2023-03-16T02:39:39;5.30;90.50
40702;DHT22;26387;50.114;8.662;2023-03-16T02:42:12;5.40;90.60
40702;DHT22;26387;50.114;8.662;2023-03-16T02:44:37;5.30;90.60
40702;DHT22;26387;50.114;8.662;2023-03-16T02:47:06;5.30;90.60
40702;DHT22;26387;50.114;8.662;2023-03-16T02:49:36;5.20;90.60
40702;DHT22;26387;50.114;8.662;2023-03-16T02:52:03;5.10;91.20
40702;DHT22;26387;50.114;8.662;2023-03-16T02:54:28;5.10;91.00
40702;DHT22;26387;50.114;8.662;2023-03-16T02:56:53;5.20;91.20
40702;DHT22;26387;50.114;8.662;2023-03-16T02:59:19;5.30;90.90
40702;DHT22;26387;50.114;8.662;2023-03-16T03:01:44;5.30;90.80
40702;DHT22;26387;50.114;8.662;2023-03-16T03:04:10;5.20;90.70
40702;DHT22;26387;50.114;8.662;2023-03-16T03:06:35;5.30;90.70
40702;DHT22;26387;50.114;8.662;2023-03-16T03:09:01;5.30;90.70
40702;DHT22;26387;50.114;8.662;2023-03-16T03:11:27;5.30;90.80
40702;DHT22;26387;50.114;8.662;2023-03-16T03:13:52;5.20;90.80
40702;DHT22;26387;50.114;8.662;2023-03-16T03:16:18;5.20;90.90
40702;DHT22;26387;50.114;8.662;2023-03-16T03:18:43;5.20;90.90
40702;DHT22;26387;50.114;8.662;2023-03-16T03:21:09;5.20;90.80
40702;DHT22;26387;50.114;8.662;2023-03-16T03:23:34;5.20;90.90
40702;DHT22;26387;50.114;8.662;2023-03-16T03:26:00;5.20;90.90
40702;DHT22;26387;50.114;8.662;2023-03-16T03:28:27;5.20;90.80
40702;DHT22;26387;50.114;8.662;2023-03-16T03:30:52;5.20;90.60
40702;DHT22;26387;50.114;8.662;2023-03-16T03:33:18;5.20;90.70
40702;DHT22;26387;50.114;8.662;2023-03-16T03:35:44;5.10;90.90
40702;DHT22;26387;50.114;8.662;2023-03-16T03:38:09;5.10;90.90
40702;DHT22;26387;50.114;8.662;2023-03-16T03:40:35;5.10;91.00
40702;DHT22;26387;50.114;8.662;2023-03-16T03:43:01;5.10;90.90
40702;DHT22;26387;50.114;8.662;2023-03-16T03:45:26;5.10;90.90
40702;DHT22;26387;50.114;8.662;2023-03-16T03:47:52;5.10;90.90
40702;DHT22;26387;50.114;8.662;2023-03-16T03:50:19;5.00;90.90
40702;DHT22;26387;50.114;8.662;2023-03-16T03:52:45;5.00;91.00
40702;DHT22;26387;50.114;8.662;2023-03-16T03:55:11;5.00;90.90
40702;DHT22;26387;50.114;8.662;2023-03-16T03:57:36;5.00;91.00
40702;DHT22;26387;50.114;8.662;2023-03-16T04:00:03;5.00;91.00
40702;DHT22;26387;50.114;8.662;2023-03-16T04:02:32;4.90;91.10
40702;DHT22;26387;50.114;8.662;2023-03-16T04:04:57;4.80;91.20
40702;DHT22;26387;50.114;8.662;2023-03-16T04:07:23;4.80;91.30
40702;DHT22;26387;50.114;8.662;2023-03-16T04:09:48;4.80;91.20
40702;DHT22;26387;50.114;8.662;2023-03-16T04:12:13;4.90;91.10
40702;DHT22;26387;50.114;8.662;2023-03-16T04:14:39;4.90;91.20
40702;DHT22;26387;50.114;8.662;2023-03-16T04:17:04;4.90;91.20
40702;DHT22;26387;50.114;8.662;2023-03-16T04:19:30;4.90;91.20
40702;DHT22;26387;50.114;8.662;2023-03-16T04:21:55;4.90;91.20
40702;DHT22;26387;50.114;8.662;2023-03-16T04:24:21;4.90;91.20
40702;DHT22;26387;50.114;8.662;2023-03-16T04:26:46;4.90;91.30
40702;DHT22;26387;50.114;8.662;2023-03-16T04:29:12;4.90;91.30
40702;DHT22;26387;50.114;8.662;2023-03-16T04:31:39;4.80;91.40
40702;DHT22;26387;50.114;8.662;2023-03-16T04:34:04;4.80;91.60
40702;DHT22;26387;50.114;8.662;2023-03-16T04:36:30;4.80;91.60
40702;DHT22;26387;50.114;8.662;2023-03-16T04:38:57;4.70;91.80
40702;DHT22;26387;50.114;8.662;2023-03-16T04:41:22;4.70;91.90
40702;DHT22;26387;50.114;8.662;2023-03-16T04:43:48;4.70;91.90
40702;DHT22;26387;50.114;8.662;2023-03-16T04:46:13;4.70;92.00
40702;DHT22;26387;50.114;8.662;2023-03-16T04:48:39;4.70;91.90
40702;DHT22;26387;50.114;8.662;2023-03-16T04:51:05;4.70;92.10
40702;DHT22;26387;50.114;8.662;2023-03-16T04:53:30;4.80;92.00
40702;DHT22;26387;50.114;8.662;2023-03-16T04:55:56;4.80;92.00
40702;DHT22;26387;50.114;8.662;2023-03-16T04:58:22;4.80;91.90
40702;DHT22;26387;50.114;8.662;2023-03-16T05:00:47;4.90;91.80
40702;DHT22;26387;50.114;8.662;2023-03-16T05:03:13;4.90;91.80
40702;DHT22;26387;50.114;8.662;2023-03-16T05:05:38;4.90;91.70
40702;DHT22;26387;50.114;8.662;2023-03-16T05:08:04;4.90;91.70
40702;DHT22;26387;50.114;8.662;2023-03-16T05:10:30;4.90;91.70
40702;DHT22;26387;50.114;8.662;2023-03-16T05:12:56;4.90;91.70
40702;DHT22;26387;50.114;8.662;2023-03-16T05:15:21;4.90;91.80
40702;DHT22;26387;50.114;8.662;2023-03-16T05:17:47;4.90;91.80
40702;DHT22;26387;50.114;8.662;2023-03-16T05:20:13;4.90;91.60
40702;DHT22;26387;50.114;8.662;2023-03-16T05:22:39;4.80;91.80
40702;DHT22;26387;50.114;8.662;2023-03-16T05:25:04;4.80;91.90
40702;DHT22;26387;50.114;8.662;2023-03-16T05:27:30;4.80;91.90
40702;DHT22;26387;50.114;8.662;2023-03-16T05:29:55;4.80;92.10
40702;DHT22;26387;50.114;8.662;2023-03-16T05:32:21;4.80;91.90
40702;DHT22;26387;50.114;8.662;2023-03-16T05:34:46;4.90;91.90
40702;DHT22;26387;50.114;8.662;2023-03-16T05:37:12;4.90;91.90
40702;DHT22;26387;50.114;8.662;2023-03-16T05:39:37;4.90;91.90
40702;DHT22;26387;50.114;8.662;2023-03-16T05:42:03;4.90;91.80
40702;DHT22;26387;50.114;8.662;2023-03-16T05:44:30;4.90;91.80
40702;DHT22;26387;50.114;8.662;2023-03-16T05:46:55;4.90;91.70
40702;DHT22;26387;50.114;8.662;2023-03-16T05:49:21;5.00;91.80
40702;DHT22;26387;50.114;8.662;2023-03-16T05:51:47;4.90;91.70
40702;DHT22;26387;50.114;8.662;2023-03-16T05:54:14;4.90;91.80
40702;DHT22;26387;50.114;8.662;2023-03-16T05:56:40;4.90;91.80
40702;DHT22;26387;50.114;8.662;2023-03-16T05:59:05;4.90;91.70
40702;DHT22;26387;50.114;8.662;2023-03-16T06:01:30;4.90;91.80
40702;DHT22;26387;50.114;8.662;2023-03-16T06:03:58;5.00;91.90
40702;DHT22;26387;50.114;8.662;2023-03-16T06:06:23;4.90;91.80
40702;DHT22;26387;50.114;8.662;2023-03-16T06:08:49;4.90;91.90
40702;DHT22;26387;50.114;8.662;2023-03-16T06:11:15;4.90;92.00
40702;DHT22;26387;50.114;8.662;2023-03-16T06:13:40;4.90;91.80
40702;DHT22;26387;50.114;8.662;2023-03-16T06:16:06;4.90;91.90
40702;DHT22;26387;50.114;8.662;2023-03-16T06:18:32;4.80;92.10
40702;DHT22;26387;50.114;8.662;2023-03-16T06:20:57;4.90;92.10
40702;DHT22;26387;50.114;8.662;2023-03-16T06:23:23;5.00;92.10
40702;DHT22;26387;50.114;8.662;2023-03-16T06:25:49;5.00;91.90
40702;DHT22;26387;50.114;8.662;2023-03-16T06:28:14;5.10;91.90
40702;DHT22;26387;50.114;8.662;2023-03-16T06:30:40;5.10;91.80
40702;DHT22;26387;50.114;8.662;2023-03-16T06:33:05;5.00;91.80
40702;DHT22;26387;50.114;8.662;2023-03-16T06:35:31;5.10;91.90
40702;DHT22;26387;50.114;8.662;2023-03-16T06:37:56;5.20;91.60
40702;DHT22;26387;50.114;8.662;2023-03-16T06:40:22;5.20;91.60
40702;DHT22;26387;50.114;8.662;2023-03-16T06:42:47;5.40;91.60
40702;DHT22;26387;50.114;8.662;2023-03-16T06:45:13;5.50;91.50
40702;DHT22;26387;50.114;8.662;2023-03-16T07:21:46;5.50;91.60
40702;DHT22;26387;50.114;8.662;2023-03-16T07:24:12;6.30;90.40
40702;DHT22;26387;50.114;8.662;2023-03-16T07:26:37;6.40;90.00
40702;DHT22;26387;50.114;8.662;2023-03-16T09:35:59;9.20;80.60
40702;DHT22;26387;50.114;8.662;2023-03-16T14:36:15;22.20;48.60
40702;DHT22;26387;50.114;8.662;2023-03-16T14:38:42;17.30;55.10
40702;DHT22;26387;50.114;8.662;2023-03-16T14:43:35;16.90;55.50
40702;DHT22;26387;50.114;8.662;2023-03-16T14:46:05;16.20;56.40
40702;DHT22;26387;50.114;8.662;2023-03-16T14:48:31;16.10;57.20
40702;DHT22;26387;50.114;8.662;2023-03-16T14:50:58;16.10;57.40
40702;DHT22;26387;50.114;8.662;2023-03-16T14:53:24;16.10;57.40
40702;DHT22;26387;50.114;8.662;2023-03-16T14:55:55;16.30;57.50
40702;DHT22;26387;50.114;8.662;2023-03-16T15:00:46;16.10;57.30
40702;DHT22;26387;50.114;8.662;2023-03-16T15:03:13;15.70;58.00
40702;DHT22;26387;50.114;8.662;2023-03-16T15:05:41;15.60;58.40
40702;DHT22;26387;50.114;8.662;2023-03-16T15:08:10;15.50;58.50
40702;DHT22;26387;50.114;8.662;2023-03-16T15:10:37;15.30;58.70
40702;DHT22;26387;50.114;8.662;2023-03-16T15:13:09;15.30;59.30
40702;DHT22;26387;50.114;8.662;2023-03-16T15:15:40;15.50;59.50
40702;DHT22;26387;50.114;8.662;2023-03-16T15:18:08;15.60;58.30
40702;DHT22;26387;50.114;8.662;2023-03-16T15:20:41;15.50;58.80
40702;DHT22;26387;50.114;8.662;2023-03-16T15:23:12;15.70;58.50
40702;DHT22;26387;50.114;8.662;2023-03-16T15:25:39;15.80;58.30
40702;DHT22;26387;50.114;8.662;2023-03-16T15:30:37;15.90;57.80
40702;DHT22;26387;50.114;8.662;2023-03-16T15:33:03;15.80;57.60
40702;DHT22;26387;50.114;8.662;2023-03-16T15:35:29;15.80;57.60
40702;DHT22;26387;50.114;8.662;2023-03-16T15:37:54;15.80;57.40
40702;DHT22;26387;50.114;8.662;2023-03-16T15:40:21;15.70;57.40
40702;DHT22;26387;50.114;8.662;2023-03-16T15:42:47;15.50;57.90
40702;DHT22;26387;50.114;8.662;2023-03-16T15:45:14;15.40;58.30
40702;DHT22;26387;50.114;8.662;2023-03-16T15:47:41;15.30;58.50
40702;DHT22;26387;50.114;8.662;2023-03-16T15:50:11;15.20;58.40
40702;DHT22;26387;50.114;8.662;2023-03-16T15:52:37;15.20;58.50
40702;DHT22;26387;50.114;8.662;2023-03-16T15:55:03;14.90;58.30
40702;DHT22;26387;50.114;8.662;2023-03-16T15:57:33;14.70;59.10
40702;DHT22;26387;50.114;8.662;2023-03-16T15:59:59;14.50;59.40
40702;DHT22;26387;50.114;8.662;2023-03-16T16:02:26;14.40;60.00
40702;DHT22;26387;50.114;8.662;2023-03-16T16:04:53;14.40;60.20
40702;DHT22;26387;50.114;8.662;2023-03-16T16:07:18;14.30;60.30
40702;DHT22;26387;50.114;8.662;2023-03-16T16:09:44;14.30;60.30
40702;DHT22;26387;50.114;8.662;2023-03-16T16:12:13;14.30;60.30
40702;DHT22;26387;50.114;8.662;2023-03-16T16:14:39;14.30;60.60
40702;DHT22;26387;50.114;8.662;2023-03-16T16:17:11;14.40;60.60
40702;DHT22;26387;50.114;8.662;2023-03-16T16:19:37;14.40;60.10
40702;DHT22;26387;50.114;8.662;2023-03-16T16:22:03;14.50;60.00
40702;DHT22;26387;50.114;8.662;2023-03-16T16:24:29;14.50;59.50
40702;DHT22;26387;50.114;8.662;2023-03-16T16:26:54;14.40;59.90
40702;DHT22;26387;50.114;8.662;2023-03-16T16:29:20;14.30;60.50
40702;DHT22;26387;50.114;8.662;2023-03-16T16:31:46;14.20;60.60
40702;DHT22;26387;50.114;8.662;2023-03-16T16:34:13;14.30;60.80
40702;DHT22;26387;50.114;8.662;2023-03-16T16:36:38;14.10;60.40
40702;DHT22;26387;50.114;8.662;2023-03-16T16:39:04;13.90;61.70
40702;DHT22;26387;50.114;8.662;2023-03-16T17:18:02;13.80;61.70
40702;DHT22;26387;50.114;8.662;2023-03-16T17:20:29;12.90;63.60
40702;DHT22;26387;50.114;8.662;2023-03-16T17:22:56;12.70;64.00
40702;DHT22;26387;50.114;8.662;2023-03-16T17:25:21;12.70;64.10
40702;DHT22;26387;50.114;8.662;2023-03-16T17:27:47;12.50;64.20
40702;DHT22;26387;50.114;8.662;2023-03-16T17:30:21;12.40;64.60
40702;DHT22;26387;50.114;8.662;2023-03-16T17:32:50;12.40;64.60
40702;DHT22;26387;50.114;8.662;2023-03-16T17:35:16;12.40;64.90
40702;DHT22;26387;50.114;8.662;2023-03-16T17:37:42;12.30;64.90
40702;DHT22;26387;50.114;8.662;2023-03-16T17:40:15;12.30;65.20
40702;DHT22;26387;50.114;8.662;2023-03-16T17:42:42;12.30;65.40
40702;DHT22;26387;50.114;8.662;2023-03-16T17:45:14;12.20;65.40
40702;DHT22;26387;50.114;8.662;2023-03-16T17:47:40;12.20;65.40
40702;DHT22;26387;50.114;8.662;2023-03-16T18:16:52;12.10;65.70
40702;DHT22;26387;50.114;8.662;2023-03-16T18:19:22;11.90;66.30
40702;DHT22;26387;50.114;8.662;2023-03-16T18:21:50;11.80;66.60
40702;DHT22;26387;50.114;8.662;2023-03-16T18:24:15;11.80;66.90
40702;DHT22;26387;50.114;8.662;2023-03-16T18:26:41;11.80;66.60
40702;DHT22;26387;50.114;8.662;2023-03-16T18:29:06;11.80;66.90
40702;DHT22;26387;50.114;8.662;2023-03-16T18:31:32;11.70;66.40
40702;DHT22;26387;50.114;8.662;2023-03-16T18:33:58;11.70;66.70
40702;DHT22;26387;50.114;8.662;2023-03-16T18:36:26;11.70;66.80
40702;DHT22;26387;50.114;8.662;2023-03-16T18:38:52;11.80;66.80
40702;DHT22;26387;50.114;8.662;2023-03-16T18:41:20;11.80;66.80
40702;DHT22;26387;50.114;8.662;2023-03-16T18:43:47;11.80;66.80
40702;DHT22;26387;50.114;8.662;2023-03-16T18:46:18;11.90;66.70
40702;DHT22;26387;50.114;8.662;2023-03-16T18:48:45;11.90;66.70
40702;DHT22;26387;50.114;8.662;2023-03-16T18:51:10;11.90;66.80
40702;DHT22;26387;50.114;8.662;2023-03-16T18:53:37;11.90;66.90
40702;DHT22;26387;50.114;8.662;2023-03-16T18:56:03;11.90;66.80
40702;DHT22;26387;50.114;8.662;2023-03-16T18:58:28;11.90;67.00
40702;DHT22;26387;50.114;8.662;2023-03-16T19:00:58;11.90;67.20
40702;DHT22;26387;50.114;8.662;2023-03-16T19:03:24;11.80;67.30
40702;DHT22;26387;50.114;8.662;2023-03-16T19:05:50;11.80;67.20
40702;DHT22;26387;50.114;8.662;2023-03-16T19:08:16;11.80;67.30
40702;DHT22;26387;50.114;8.662;2023-03-16T19:10:52;11.70;66.80
40702;DHT22;26387;50.114;8.662;2023-03-16T19:13:21;11.60;68.00
40702;DHT22;26387;50.114;8.662;2023-03-16T19:15:47;11.60;66.90
40702;DHT22;26387;50.114;8.662;2023-03-16T19:18:13;11.60;67.10
40702;DHT22;26387;50.114;8.662;2023-03-16T19:20:38;11.60;67.60
40702;DHT22;26387;50.114;8.662;2023-03-16T19:25:43;11.60;67.00
40702;DHT22;26387;50.114;8.662;2023-03-16T19:28:24;11.50;66.80
40702;DHT22;26387;50.114;8.662;2023-03-16T19:30:52;11.40;67.10
40702;DHT22;26387;50.114;8.662;2023-03-16T19:33:20;11.40;67.20
40702;DHT22;26387;50.114;8.662;2023-03-16T19:35:47;11.20;67.30
40702;DHT22;26387;50.114;8.662;2023-03-16T19:38:13;11.10;67.80
40702;DHT22;26387;50.114;8.662;2023-03-16T19:40:39;11.00;68.00
40702;DHT22;26387;50.114;8.662;2023-03-16T19:43:04;11.00;68.10
40702;DHT22;26387;50.114;8.662;2023-03-16T19:45:32;11.00;68.30
40702;DHT22;26387;50.114;8.662;2023-03-16T19:47:58;11.00;68.30
40702;DHT22;26387;50.114;8.662;2023-03-16T19:50:25;11.10;68.10
40702;DHT22;26387;50.114;8.662;2023-03-16T19:52:50;11.00;68.10
40702;DHT22;26387;50.114;8.662;2023-03-16T19:55:20;11.00;68.40
40702;DHT22;26387;50.114;8.662;2023-03-16T19:57:47;10.90;68.50
40702;DHT22;26387;50.114;8.662;2023-03-16T20:00:17;10.90;68.70
40702;DHT22;26387;50.114;8.662;2023-03-16T20:02:43;10.90;68.90
40702;DHT22;26387;50.114;8.662;2023-03-16T20:05:14;10.90;68.80
40702;DHT22;26387;50.114;8.662;2023-03-16T20:07:40;10.90;68.80
40702;DHT22;26387;50.114;8.662;2023-03-16T20:10:06;11.00;68.70
40702;DHT22;26387;50.114;8.662;2023-03-16T20:12:32;11.00;68.80
40702;DHT22;26387;50.114;8.662;2023-03-16T20:14:57;10.90;68.80
40702;DHT22;26387;50.114;8.662;2023-03-16T20:17:24;10.90;68.70
40702;DHT22;26387;50.114;8.662;2023-03-16T20:19:51;10.90;68.80
40702;DHT22;26387;50.114;8.662;2023-03-16T20:22:18;10.80;68.80
40702;DHT22;26387;50.114;8.662;2023-03-16T20:27:10;10.90;97.60
40702;DHT22;26387;50.114;8.662;2023-03-16T20:29:37;10.70;69.30
40702;DHT22;26387;50.114;8.662;2023-03-16T20:32:03;10.70;69.60
40702;DHT22;26387;50.114;8.662;2023-03-16T20:34:30;10.70;69.70
40702;DHT22;26387;50.114;8.662;2023-03-16T20:36:56;10.70;69.80
40702;DHT22;26387;50.114;8.662;2023-03-16T20:39:22;10.70;69.40
40702;DHT22;26387;50.114;8.662;2023-03-16T20:41:47;10.70;96.80
40702;DHT22;26387;50.114;8.662;2023-03-16T21:20:49;10.50;98.20
40702;DHT22;26387;50.114;8.662;2023-03-16T21:23:16;10.40;71.20
40702;DHT22;26387;50.114;8.662;2023-03-16T21:25:46;10.40;71.30
40702;DHT22;26387;50.114;8.662;2023-03-16T21:28:12;10.40;71.10
40702;DHT22;26387;50.114;8.662;2023-03-16T21:30:41;10.40;71.30
40702;DHT22;26387;50.114;8.662;2023-03-16T21:33:11;10.40;71.10
40702;DHT22;26387;50.114;8.662;2023-03-16T21:35:40;10.50;71.10
40702;DHT22;26387;50.114;8.662;2023-03-16T21:38:16;10.50;71.20
40702;DHT22;26387;50.114;8.662;2023-03-16T21:40:42;10.50;71.90
40702;DHT22;26387;50.114;8.662;2023-03-16T21:43:08;10.50;71.30
40702;DHT22;26387;50.114;8.662;2023-03-16T21:45:34;10.50;71.10
40702;DHT22;26387;50.114;8.662;2023-03-16T21:48:00;10.50;71.30
40702;DHT22;26387;50.114;8.662;2023-03-16T21:50:26;10.50;71.20
40702;DHT22;26387;50.114;8.662;2023-03-16T21:52:53;10.50;71.40
40702;DHT22;26387;50.114;8.662;2023-03-16T21:55:20;10.50;71.30
40702;DHT22;26387;50.114;8.662;2023-03-16T21:57:46;10.50;71.50
40702;DHT22;26387;50.114;8.662;2023-03-16T22:02:51;10.40;72.30
40702;DHT22;26387;50.114;8.662;2023-03-16T22:07:54;10.30;71.80
40702;DHT22;26387;50.114;8.662;2023-03-16T22:10:20;10.30;71.80
40702;DHT22;26387;50.114;8.662;2023-03-16T22:12:46;10.30;72.60
40702;DHT22;26387;50.114;8.662;2023-03-16T22:15:12;10.30;72.00
40702;DHT22;26387;50.114;8.662;2023-03-16T22:17:37;10.30;72.00
40702;DHT22;26387;50.114;8.662;2023-03-16T22:20:12;10.20;71.70
40702;DHT22;26387;50.114;8.662;2023-03-16T22:22:39;10.20;72.10
40702;DHT22;26387;50.114;8.662;2023-03-16T22:25:12;10.20;72.10
40702;DHT22;26387;50.114;8.662;2023-03-16T22:27:38;10.10;72.00
40702;DHT22;26387;50.114;8.662;2023-03-16T22:30:03;10.10;72.20
40702;DHT22;26387;50.114;8.662;2023-03-16T22:32:29;10.10;72.20
40702;DHT22;26387;50.114;8.662;2023-03-16T22:34:54;10.10;72.30
40702;DHT22;26387;50.114;8.662;2023-03-16T22:37:21;10.00;71.80
40702;DHT22;26387;50.114;8.662;2023-03-16T22:39:48;10.00;72.30
40702;DHT22;26387;50.114;8.662;2023-03-16T22:44:45;10.00;72.60
40702;DHT22;26387;50.114;8.662;2023-03-16T22:47:18;10.10;72.60
40702;DHT22;26387;50.114;8.662;2023-03-16T22:49:45;10.10;72.50
40702;DHT22;26387;50.114;8.662;2023-03-16T22:52:10;10.10;72.00
40702;DHT22;26387;50.114;8.662;2023-03-16T22:54:36;10.10;72.10
40702;DHT22;26387;50.114;8.662;2023-03-16T22:57:02;10.20;72.10
40702;DHT22;26387;50.114;8.662;2023-03-16T22:59:28;10.10;72.00
40702;DHT22;26387;50.114;8.662;2023-03-16T23:01:54;10.10;71.80
40702;DHT22;26387;50.114;8.662;2023-03-16T23:04:21;10.10;72.00
40702;DHT22;26387;50.114;8.662;2023-03-16T23:06:48;10.10;72.00
40702;DHT22;26387;50.114;8.662;2023-03-16T23:09:14;10.10;72.20
40702;DHT22;26387;50.114;8.662;2023-03-16T23:11:40;10.10;72.20
40702;DHT22;26387;50.114;8.662;2023-03-16T23:14:11;10.00;71.80
40702;DHT22;26387;50.114;8.662;2023-03-16T23:16:37;10.00;72.30
40702;DHT22;26387;50.114;8.662;2023-03-16T23:19:03;10.00;72.30
40702;DHT22;26387;50.114;8.662;2023-03-16T23:21:29;10.00;71.70
40702;DHT22;26387;50.114;8.662;2023-03-16T23:23:54;10.00;72.10
40702;DHT22;26387;50.114;8.662;2023-03-16T23:26:24;10.00;72.10
40702;DHT22;26387;50.114;8.662;2023-03-16T23:28:50;10.00;72.20
40702;DHT22;26387;50.114;8.662;2023-03-16T23:31:16;10.00;72.20
40702;DHT22;26387;50.114;8.662;2023-03-16T23:33:42;10.00;72.10
40702;DHT22;26387;50.114;8.662;2023-03-16T23:36:12;10.00;72.60
40702;DHT22;26387;50.114;8.662;2023-03-16T23:38:38;10.00;71.80
40702;DHT22;26387;50.114;8.662;2023-03-16T23:41:04;10.00;72.10
40702;DHT22;26387;50.114;8.662;2023-03-16T23:43:30;10.10;72.60
40702;DHT22;26387;50.114;8.662;2023-03-16T23:45:56;10.10;72.40
40702;DHT22;26387;50.114;8.662;2023-03-16T23:48:21;10.10;72.20
40702;DHT22;26387;50.114;8.662;2023-03-16T23:50:48;10.10;72.30
40702;DHT22;26387;50.114;8.662;2023-03-16T23:53:15;10.10;72.20
40702;DHT22;26387;50.114;8.662;2023-03-16T23:55:42;10.10;72.30
40702;DHT22;26387;50.114;8.662;2023-03-16T23:58:07;10.10;72.30
